createdAt,value
2022-09-30T00:00:33.937Z,4.63
2022-09-30T00:01:33.982Z,4.60
2022-09-30T00:02:33.990Z,4.61
2022-09-30T00:03:33.908Z,4.57
2022-09-30T00:04:33.940Z,4.57
2022-09-30T00:05:33.883Z,4.56
2022-09-30T00:06:33.881Z,4.56
2022-09-30T00:07:33.885Z,4.59
2022-09-30T00:08:33.854Z,4.56
2022-09-30T00:09:33.912Z,4.57
2022-09-30T00:10:33.859Z,4.54
2022-09-30T00:11:33.801Z,4.54
2022-09-30T00:12:33.805Z,4.56
2022-09-30T00:13:33.782Z,4.56
2022-09-30T00:14:33.784Z,4.56
2022-09-30T00:15:33.790Z,4.54
2022-09-30T00:16:33.789Z,4.54
2022-09-30T00:17:33.738Z,4.57
2022-09-30T00:18:33.728Z,4.56
2022-09-30T00:19:33.993Z,4.54
2022-09-30T00:20:33.728Z,4.53
2022-09-30T00:21:33.700Z,4.51
2022-09-30T00:22:33.701Z,4.48
2022-09-30T00:23:33.683Z,4.49
2022-09-30T00:24:33.683Z,4.48
2022-09-30T00:25:33.689Z,4.48
2022-09-30T00:26:33.654Z,4.46
2022-09-30T00:27:33.634Z,4.43
2022-09-30T00:28:33.634Z,4.42
2022-09-30T00:29:33.605Z,4.42
2022-09-30T00:30:33.601Z,4.41
2022-09-30T00:31:33.782Z,4.38
2022-09-30T00:32:33.611Z,4.39
2022-09-30T00:33:33.577Z,4.38
2022-09-30T00:34:33.587Z,4.41
2022-09-30T00:35:33.546Z,4.39
2022-09-30T00:36:33.549Z,4.39
2022-09-30T00:37:33.543Z,4.38
2022-09-30T00:38:33.514Z,4.39
2022-09-30T00:39:33.507Z,4.43
2022-09-30T00:40:33.494Z,4.42
2022-09-30T00:41:33.519Z,4.42
2022-09-30T00:42:33.482Z,4.42
2022-09-30T00:43:33.475Z,4.39
2022-09-30T00:44:33.452Z,4.39
2022-09-30T00:45:33.458Z,4.36
2022-09-30T00:46:33.519Z,4.36
2022-09-30T00:47:33.454Z,4.36
2022-09-30T00:48:33.450Z,4.38
2022-09-30T00:49:33.447Z,4.38
2022-09-30T00:50:33.386Z,4.36
2022-09-30T00:51:33.392Z,4.34
2022-09-30T00:52:33.368Z,4.35
2022-09-30T00:53:33.366Z,4.34
2022-09-30T00:54:33.357Z,4.31
2022-09-30T00:55:33.582Z,4.30
2022-09-30T00:56:33.323Z,4.30
2022-09-30T00:57:33.328Z,4.27
2022-09-30T00:58:33.315Z,4.27
2022-09-30T00:59:33.301Z,4.26
2022-09-30T01:00:33.331Z,4.28
2022-09-30T01:01:33.355Z,4.28
2022-09-30T01:02:33.276Z,4.28
2022-09-30T01:03:33.263Z,4.28
2022-09-30T01:04:33.297Z,4.30
2022-09-30T01:05:33.266Z,4.28
2022-09-30T01:06:33.276Z,4.27
2022-09-30T01:07:33.221Z,4.27
2022-09-30T01:08:33.218Z,4.26
2022-09-30T01:09:33.230Z,4.27
2022-09-30T01:10:33.190Z,4.23
2022-09-30T01:11:33.170Z,4.23
2022-09-30T01:12:33.180Z,4.21
2022-09-30T01:13:33.161Z,4.20
2022-09-30T01:14:33.157Z,4.20
2022-09-30T01:15:33.133Z,4.21
2022-09-30T01:16:33.174Z,4.23
2022-09-30T01:17:33.107Z,4.20
2022-09-30T01:18:33.117Z,4.21
2022-09-30T01:19:33.084Z,4.20
2022-09-30T01:20:33.104Z,4.17
2022-09-30T01:21:33.077Z,4.17
2022-09-30T01:22:33.067Z,4.20
2022-09-30T01:23:33.077Z,4.20
2022-09-30T01:24:33.034Z,4.18
2022-09-30T01:25:33.031Z,4.17
2022-09-30T01:26:33.017Z,4.17
2022-09-30T01:27:33.008Z,4.16
2022-09-30T01:28:32.984Z,4.18
2022-09-30T01:29:32.993Z,4.16
2022-09-30T01:30:33.004Z,4.16
2022-09-30T01:31:33.030Z,4.16
2022-09-30T01:32:32.946Z,4.13
2022-09-30T01:33:32.966Z,4.10
2022-09-30T01:34:32.928Z,4.10
2022-09-30T01:35:32.921Z,4.06
2022-09-30T01:36:32.961Z,4.06
2022-09-30T01:37:32.909Z,4.08
2022-09-30T01:38:32.880Z,4.08
2022-09-30T01:39:34.406Z,4.05
2022-09-30T01:40:32.877Z,4.06
2022-09-30T01:41:32.858Z,4.05
2022-09-30T01:42:32.859Z,4.06
2022-09-30T01:43:32.833Z,4.05
2022-09-30T01:44:32.818Z,4.03
2022-09-30T01:45:32.815Z,4.03
2022-09-30T01:46:32.844Z,4.03
2022-09-30T01:47:32.815Z,4.03
2022-09-30T01:48:32.769Z,4.05
2022-09-30T01:49:32.774Z,4.05
2022-09-30T01:50:32.757Z,4.06
2022-09-30T01:51:32.759Z,4.06
2022-09-30T01:52:32.746Z,4.06
2022-09-30T01:53:32.726Z,4.06
2022-09-30T01:54:32.722Z,4.08
2022-09-30T01:55:32.697Z,4.06
2022-09-30T01:56:32.686Z,4.05
2022-09-30T01:57:32.707Z,4.03
2022-09-30T01:58:32.682Z,4.05
2022-09-30T01:59:32.668Z,4.05
2022-09-30T02:00:32.710Z,4.02
2022-09-30T02:01:32.651Z,4.03
2022-09-30T02:02:32.748Z,4.00
2022-09-30T02:03:32.696Z,4.00
2022-09-30T02:04:32.645Z,3.99
2022-09-30T02:05:32.623Z,3.99
2022-09-30T02:06:32.590Z,3.98
2022-09-30T02:07:32.595Z,3.94
2022-09-30T02:08:32.588Z,3.94
2022-09-30T02:09:32.706Z,3.94
2022-09-30T02:10:32.547Z,3.92
2022-09-30T02:11:32.550Z,3.94
2022-09-30T02:12:32.550Z,3.94
2022-09-30T02:13:32.527Z,3.92
2022-09-30T02:14:32.506Z,3.91
2022-09-30T02:15:32.504Z,3.90
2022-09-30T02:16:32.629Z,3.91
2022-09-30T02:17:32.490Z,3.91
2022-09-30T02:18:32.491Z,3.91
2022-09-30T02:19:32.449Z,3.91
2022-09-30T02:20:32.438Z,3.91
2022-09-30T02:21:32.435Z,3.92
2022-09-30T02:22:32.498Z,3.90
2022-09-30T02:23:32.424Z,3.91
2022-09-30T02:24:32.436Z,3.91
2022-09-30T02:25:32.403Z,3.91
2022-09-30T02:26:32.380Z,3.88
2022-09-30T02:27:32.372Z,3.90
2022-09-30T02:28:32.351Z,3.90
2022-09-30T02:29:32.368Z,3.90
2022-09-30T02:30:32.347Z,3.88
2022-09-30T02:31:32.443Z,3.87
2022-09-30T02:32:32.317Z,3.85
2022-09-30T02:33:32.334Z,3.84
2022-09-30T02:34:32.321Z,3.84
2022-09-30T02:35:32.305Z,3.84
2022-09-30T02:36:32.284Z,3.84
2022-09-30T02:37:32.330Z,3.82
2022-09-30T02:38:32.250Z,3.82
2022-09-30T02:39:32.257Z,3.82
2022-09-30T02:40:32.234Z,3.81
2022-09-30T02:41:32.240Z,3.80
2022-09-30T02:42:32.285Z,3.78
2022-09-30T02:43:32.207Z,3.76
2022-09-30T02:44:32.190Z,3.73
2022-09-30T02:45:32.189Z,3.73
2022-09-30T02:46:32.235Z,3.74
2022-09-30T02:47:32.164Z,3.73
2022-09-30T02:48:32.139Z,3.74
2022-09-30T02:49:32.149Z,3.73
2022-09-30T02:50:32.125Z,3.73
2022-09-30T02:51:32.134Z,3.72
2022-09-30T02:52:32.104Z,3.72
2022-09-30T02:53:32.105Z,3.72
2022-09-30T02:54:32.086Z,3.72
2022-09-30T02:55:32.108Z,3.72
2022-09-30T02:56:32.060Z,3.70
2022-09-30T02:57:32.078Z,3.72
2022-09-30T02:58:32.044Z,3.70
2022-09-30T02:59:32.093Z,3.72
2022-09-30T03:00:32.089Z,3.72
2022-09-30T03:01:32.130Z,3.72
2022-09-30T03:02:32.002Z,3.72
2022-09-30T03:03:31.988Z,3.72
2022-09-30T03:04:31.976Z,3.72
2022-09-30T03:05:32.009Z,3.70
2022-09-30T03:06:31.989Z,3.70
2022-09-30T03:07:32.062Z,3.67
2022-09-30T03:08:31.938Z,3.69
2022-09-30T03:09:31.988Z,3.70
2022-09-30T03:10:31.923Z,3.70
2022-09-30T03:11:31.910Z,3.70
2022-09-30T03:12:31.902Z,3.69
2022-09-30T03:13:31.902Z,3.69
2022-09-30T03:14:31.885Z,3.70
2022-09-30T03:15:31.870Z,3.69
2022-09-30T03:16:31.903Z,3.69
2022-09-30T03:17:31.885Z,3.69
2022-09-30T03:18:31.839Z,3.69
2022-09-30T03:19:31.830Z,3.70
2022-09-30T03:20:31.809Z,3.72
2022-09-30T03:21:31.820Z,3.70
2022-09-30T03:22:31.804Z,3.69
2022-09-30T03:23:31.803Z,3.67
2022-09-30T03:24:31.779Z,3.67
2022-09-30T03:25:31.770Z,3.66
2022-09-30T03:26:31.759Z,3.69
2022-09-30T03:27:31.774Z,3.69
2022-09-30T03:28:31.751Z,3.67
2022-09-30T03:29:31.747Z,3.67
2022-09-30T03:30:31.746Z,3.67
2022-09-30T03:31:31.778Z,3.64
2022-09-30T03:32:31.691Z,3.64
2022-09-30T03:33:31.681Z,3.64
2022-09-30T03:34:31.672Z,3.63
2022-09-30T03:35:31.690Z,3.64
2022-09-30T03:36:31.658Z,3.62
2022-09-30T03:37:31.652Z,3.63
2022-09-30T03:38:31.626Z,3.63
2022-09-30T03:39:31.615Z,3.60
2022-09-30T03:40:31.634Z,3.60
2022-09-30T03:41:31.606Z,3.59
2022-09-30T03:42:31.592Z,3.56
2022-09-30T03:43:31.583Z,3.56
2022-09-30T03:44:31.578Z,3.55
2022-09-30T03:45:31.663Z,3.56
2022-09-30T03:46:31.693Z,3.55
2022-09-30T03:47:31.542Z,3.54
2022-09-30T03:48:31.525Z,3.54
2022-09-30T03:49:31.522Z,3.54
2022-09-30T03:50:31.529Z,3.54
2022-09-30T03:51:31.499Z,3.54
2022-09-30T03:52:31.487Z,3.51
2022-09-30T03:53:31.483Z,3.52
2022-09-30T03:54:31.484Z,3.51
2022-09-30T03:55:31.456Z,3.49
2022-09-30T03:56:31.433Z,3.51
2022-09-30T03:57:31.459Z,3.51
2022-09-30T03:58:31.420Z,3.51
2022-09-30T03:59:31.501Z,3.52
2022-09-30T04:00:31.472Z,3.52
2022-09-30T04:01:31.391Z,3.54
2022-09-30T04:02:31.381Z,3.52
2022-09-30T04:03:31.374Z,3.52
2022-09-30T04:04:31.377Z,3.54
2022-09-30T04:05:31.361Z,3.54
2022-09-30T04:06:31.340Z,3.56
2022-09-30T04:07:31.361Z,3.55
2022-09-30T04:08:33.826Z,3.59
2022-09-30T04:09:31.366Z,3.59
2022-09-30T04:10:31.324Z,3.60
2022-09-30T04:11:31.324Z,3.56
2022-09-30T04:12:31.269Z,3.56
2022-09-30T04:13:31.278Z,3.56
2022-09-30T04:14:31.264Z,3.56
2022-09-30T04:15:31.257Z,3.59
2022-09-30T04:16:31.380Z,3.55
2022-09-30T04:17:31.233Z,3.56
2022-09-30T04:18:31.225Z,3.52
2022-09-30T04:19:31.233Z,3.52
2022-09-30T04:20:31.188Z,3.49
2022-09-30T04:21:31.199Z,3.51
2022-09-30T04:22:31.185Z,3.48
2022-09-30T04:23:31.173Z,3.51
2022-09-30T04:24:31.150Z,3.55
2022-09-30T04:25:31.144Z,3.55
2022-09-30T04:26:31.141Z,3.52
2022-09-30T04:27:31.117Z,3.54
2022-09-30T04:28:31.100Z,3.52
2022-09-30T04:29:31.111Z,3.51
2022-09-30T04:30:33.522Z,3.48
2022-09-30T04:31:31.124Z,3.45
2022-09-30T04:32:31.066Z,3.48
2022-09-30T04:33:31.070Z,3.44
2022-09-30T04:34:31.054Z,3.44
2022-09-30T04:35:31.132Z,3.45
2022-09-30T04:36:31.053Z,3.42
2022-09-30T04:37:31.046Z,3.42
2022-09-30T04:38:31.009Z,3.37
2022-09-30T04:39:30.995Z,3.37
2022-09-30T04:40:30.978Z,3.36
2022-09-30T04:41:31.002Z,3.35
2022-09-30T04:42:30.967Z,3.36
2022-09-30T04:43:30.990Z,3.41
2022-09-30T04:44:30.953Z,3.36
2022-09-30T04:45:30.969Z,3.37
2022-09-30T04:46:30.922Z,3.37
2022-09-30T04:47:30.922Z,3.36
2022-09-30T04:48:30.905Z,3.35
2022-09-30T04:49:30.900Z,3.33
2022-09-30T04:50:30.899Z,3.30
2022-09-30T04:51:30.874Z,3.30
2022-09-30T04:52:30.854Z,3.32
2022-09-30T04:53:30.868Z,3.30
2022-09-30T04:54:30.833Z,3.33
2022-09-30T04:55:30.871Z,3.33
2022-09-30T04:56:30.840Z,3.30
2022-09-30T04:57:30.804Z,3.32
2022-09-30T04:58:36.029Z,3.30
2022-09-30T04:59:30.790Z,3.29
2022-09-30T05:00:30.841Z,3.27
2022-09-30T05:01:30.740Z,3.29
2022-09-30T05:02:30.799Z,3.29
2022-09-30T05:03:30.751Z,3.27
2022-09-30T05:04:30.746Z,3.27
2022-09-30T05:05:30.739Z,3.26
2022-09-30T05:06:30.681Z,3.25
2022-09-30T05:07:30.658Z,3.25
2022-09-30T05:08:30.650Z,3.23
2022-09-30T05:09:30.699Z,3.23
2022-09-30T05:10:30.643Z,3.22
2022-09-30T05:11:30.630Z,3.25
2022-09-30T05:12:30.613Z,3.25
2022-09-30T05:13:30.592Z,3.25
2022-09-30T05:14:30.601Z,3.25
2022-09-30T05:15:30.568Z,3.23
2022-09-30T05:16:30.717Z,3.23
2022-09-30T05:17:30.565Z,3.25
2022-09-30T05:18:30.539Z,3.25
2022-09-30T05:19:30.544Z,3.25
2022-09-30T05:20:30.527Z,3.23
2022-09-30T05:21:30.521Z,3.23
2022-09-30T05:22:30.506Z,3.22
2022-09-30T05:23:30.481Z,3.23
2022-09-30T05:24:30.480Z,3.22
2022-09-30T05:25:30.466Z,3.23
2022-09-30T05:26:30.472Z,3.23
2022-09-30T05:27:30.460Z,3.22
2022-09-30T05:28:30.450Z,3.23
2022-09-30T05:29:30.424Z,3.26
2022-09-30T05:30:30.421Z,3.25
2022-09-30T05:31:30.520Z,3.26
2022-09-30T05:32:30.414Z,3.26
2022-09-30T05:33:30.392Z,3.26
2022-09-30T05:34:30.371Z,3.26
2022-09-30T05:35:30.368Z,3.27
2022-09-30T05:36:30.365Z,3.25
2022-09-30T05:37:30.349Z,3.23
2022-09-30T05:38:30.383Z,3.25
2022-09-30T05:39:30.317Z,3.23
2022-09-30T05:40:30.312Z,3.26
2022-09-30T05:41:30.297Z,3.23
2022-09-30T05:42:30.291Z,3.25
2022-09-30T05:43:30.281Z,3.23
2022-09-30T05:44:30.295Z,3.23
2022-09-30T05:45:30.245Z,3.23
2022-09-30T05:46:30.299Z,3.22
2022-09-30T05:47:30.237Z,3.22
2022-09-30T05:48:30.236Z,3.26
2022-09-30T05:49:30.232Z,3.25
2022-09-30T05:50:30.231Z,3.26
2022-09-30T05:51:30.207Z,3.26
2022-09-30T05:52:30.214Z,3.29
2022-09-30T05:53:30.319Z,3.30
2022-09-30T05:54:30.177Z,3.32
2022-09-30T05:55:30.151Z,3.33
2022-09-30T05:56:30.163Z,3.35
2022-09-30T05:57:30.140Z,3.37
2022-09-30T05:58:30.440Z,3.41
2022-09-30T05:59:30.124Z,3.42
2022-09-30T06:00:30.130Z,3.44
2022-09-30T06:01:30.137Z,3.42
2022-09-30T06:02:30.260Z,3.42
2022-09-30T06:03:30.076Z,3.46
2022-09-30T06:04:30.075Z,3.46
2022-09-30T06:05:30.045Z,3.49
2022-09-30T06:06:30.066Z,3.49
2022-09-30T06:07:30.032Z,3.51
2022-09-30T06:08:30.038Z,3.52
2022-09-30T06:09:30.073Z,3.55
2022-09-30T06:10:30.001Z,3.56
2022-09-30T06:11:30.032Z,3.59
2022-09-30T06:12:29.988Z,3.60
2022-09-30T06:13:29.960Z,3.62
2022-09-30T06:14:29.964Z,3.60
2022-09-30T06:15:29.948Z,3.64
2022-09-30T06:16:30.051Z,3.64
2022-09-30T06:17:29.973Z,3.66
2022-09-30T06:18:29.915Z,3.66
2022-09-30T06:19:29.904Z,3.67
2022-09-30T06:20:29.902Z,3.69
2022-09-30T06:21:29.878Z,3.72
2022-09-30T06:22:29.876Z,3.72
2022-09-30T06:23:29.882Z,3.76
2022-09-30T06:24:29.862Z,3.80
2022-09-30T06:25:29.850Z,3.81
2022-09-30T06:26:29.854Z,3.85
2022-09-30T06:27:29.843Z,3.85
2022-09-30T06:28:29.837Z,3.88
2022-09-30T06:29:29.788Z,3.91
2022-09-30T06:30:34.853Z,3.94
2022-09-30T06:31:29.813Z,3.96
2022-09-30T06:32:29.801Z,3.99
2022-09-30T06:33:29.779Z,4.03
2022-09-30T06:34:29.747Z,4.05
2022-09-30T06:35:29.741Z,4.08
2022-09-30T06:36:29.735Z,4.12
2022-09-30T06:37:29.711Z,4.16
2022-09-30T06:38:29.714Z,4.20
2022-09-30T06:39:29.832Z,4.23
2022-09-30T06:40:29.696Z,4.26
2022-09-30T06:41:29.674Z,4.28
2022-09-30T06:42:29.677Z,4.31
2022-09-30T06:43:29.668Z,4.38
2022-09-30T06:44:29.656Z,4.41
2022-09-30T06:45:32.844Z,4.45
2022-09-30T06:46:31.283Z,4.49
2022-09-30T06:47:29.685Z,4.54
2022-09-30T06:48:37.606Z,4.59
2022-09-30T06:49:41.208Z,4.63
2022-09-30T06:50:29.589Z,4.67
2022-09-30T06:51:29.575Z,4.74
2022-09-30T06:52:29.570Z,4.78
2022-09-30T06:53:29.597Z,4.86
2022-09-30T06:54:29.546Z,4.91
2022-09-30T06:55:29.522Z,4.98
2022-09-30T06:56:29.527Z,5.04
2022-09-30T06:57:29.511Z,5.12
2022-09-30T06:58:29.561Z,5.22
2022-09-30T06:59:29.499Z,5.30
2022-09-30T07:00:29.501Z,5.37
2022-09-30T07:01:29.521Z,5.44
2022-09-30T07:02:29.501Z,5.54
2022-09-30T07:03:29.437Z,5.61
2022-09-30T07:04:29.469Z,5.69
2022-09-30T07:05:29.449Z,5.75
2022-09-30T07:06:29.680Z,5.82
2022-09-30T07:07:29.394Z,5.88
2022-09-30T07:08:29.399Z,5.98
2022-09-30T07:09:29.416Z,6.05
2022-09-30T07:10:29.373Z,6.12
2022-09-30T07:11:29.375Z,6.27
2022-09-30T07:12:29.372Z,6.40
2022-09-30T07:13:29.335Z,6.49
2022-09-30T07:14:29.335Z,6.64
2022-09-30T07:15:29.342Z,6.79
2022-09-30T07:16:29.376Z,6.92
2022-09-30T07:17:29.375Z,7.07
2022-09-30T07:18:29.448Z,7.19
2022-09-30T07:19:29.302Z,7.29
2022-09-30T07:20:29.284Z,7.40
2022-09-30T07:21:29.308Z,7.47
2022-09-30T07:22:29.265Z,7.55
2022-09-30T07:23:29.256Z,7.62
2022-09-30T07:24:29.240Z,7.68
2022-09-30T07:25:29.209Z,7.77
2022-09-30T07:26:29.204Z,7.86
2022-09-30T07:27:29.207Z,7.98
2022-09-30T07:28:29.200Z,8.05
2022-09-30T07:29:36.661Z,8.17
2022-09-30T07:30:29.190Z,8.28
2022-09-30T07:31:34.287Z,8.35
2022-09-30T07:32:29.189Z,8.44
2022-09-30T07:33:29.135Z,8.53
2022-09-30T07:34:29.113Z,8.68
2022-09-30T07:35:29.123Z,8.81
2022-09-30T07:36:32.602Z,8.89
2022-09-30T07:37:29.101Z,8.98
2022-09-30T07:38:29.107Z,9.01
2022-09-30T07:39:29.121Z,9.06
2022-09-30T07:40:29.065Z,9.15
2022-09-30T07:41:29.071Z,9.22
2022-09-30T07:42:29.031Z,9.29
2022-09-30T07:43:29.040Z,9.33
2022-09-30T07:44:29.018Z,9.37
2022-09-30T07:45:28.997Z,9.47
2022-09-30T07:46:29.068Z,9.50
2022-09-30T07:47:29.004Z,9.57
2022-09-30T07:48:28.968Z,9.63
2022-09-30T07:49:28.954Z,9.65
2022-09-30T07:50:28.947Z,9.72
2022-09-30T07:51:28.946Z,9.70
2022-09-30T07:52:29.000Z,9.72
2022-09-30T07:53:28.933Z,9.75
2022-09-30T07:54:28.921Z,9.77
2022-09-30T07:55:28.891Z,9.85
2022-09-30T07:56:41.099Z,9.94
2022-09-30T07:57:28.883Z,9.98
2022-09-30T07:58:28.890Z,9.98
2022-09-30T07:59:28.905Z,9.99
2022-09-30T08:00:42.086Z,10.06
2022-09-30T08:01:28.895Z,10.08
2022-09-30T08:02:29.003Z,10.09
2022-09-30T08:03:28.836Z,10.12
2022-09-30T08:04:28.855Z,10.17
2022-09-30T08:05:28.797Z,10.21
2022-09-30T08:06:28.809Z,10.23
2022-09-30T08:07:28.785Z,10.26
2022-09-30T08:08:28.774Z,10.34
2022-09-30T08:09:29.036Z,10.36
2022-09-30T08:10:28.729Z,10.35
2022-09-30T08:11:28.822Z,10.36
2022-09-30T08:12:28.721Z,10.45
2022-09-30T08:13:28.693Z,10.52
2022-09-30T08:14:28.705Z,10.57
2022-09-30T08:15:28.705Z,10.55
2022-09-30T08:16:28.715Z,10.62
2022-09-30T08:17:28.659Z,10.60
2022-09-30T08:18:28.642Z,10.68
2022-09-30T08:19:28.633Z,10.79
2022-09-30T08:20:28.645Z,10.86
2022-09-30T08:21:28.604Z,11.00
2022-09-30T08:22:28.608Z,11.11
2022-09-30T08:23:28.684Z,11.15
2022-09-30T08:24:28.592Z,11.22
2022-09-30T08:25:28.580Z,11.31
2022-09-30T08:26:28.564Z,11.41
2022-09-30T08:27:28.577Z,11.43
2022-09-30T08:28:28.549Z,11.43
2022-09-30T08:30:28.580Z,11.43
2022-09-30T08:31:28.566Z,11.45
2022-09-30T08:32:28.500Z,11.55
2022-09-30T08:33:28.492Z,11.64
2022-09-30T08:34:28.481Z,11.71
2022-09-30T08:35:28.470Z,11.66
2022-09-30T08:36:28.515Z,11.69
2022-09-30T08:37:28.512Z,11.69
2022-09-30T08:38:28.452Z,11.70
2022-09-30T08:39:28.427Z,11.74
2022-09-30T08:40:28.505Z,11.74
2022-09-30T08:41:28.660Z,11.77
2022-09-30T08:42:37.914Z,11.88
2022-09-30T08:43:28.440Z,11.95
2022-09-30T08:44:28.407Z,11.99
2022-09-30T08:45:28.459Z,12.07
2022-09-30T08:46:28.460Z,12.10
2022-09-30T08:47:28.356Z,12.14
2022-09-30T08:48:28.336Z,12.13
2022-09-30T08:49:28.320Z,12.14
2022-09-30T08:50:28.303Z,12.18
2022-09-30T08:51:28.342Z,12.28
2022-09-30T08:52:30.910Z,12.22
2022-09-30T08:53:28.281Z,12.23
2022-09-30T08:54:28.274Z,12.28
2022-09-30T08:55:28.251Z,12.32
2022-09-30T08:56:28.247Z,12.26
2022-09-30T08:57:28.252Z,12.33
2022-09-30T08:58:28.213Z,12.43
2022-09-30T08:59:28.207Z,12.53
2022-09-30T09:00:28.206Z,12.59
2022-09-30T09:01:28.207Z,12.65
2022-09-30T09:02:28.211Z,12.73
2022-09-30T09:03:28.569Z,12.53
2022-09-30T09:04:28.245Z,12.51
2022-09-30T09:05:28.149Z,12.62
2022-09-30T09:06:28.136Z,12.72
2022-09-30T09:07:28.326Z,12.87
2022-09-30T09:08:28.374Z,13.01
2022-09-30T09:09:28.128Z,13.13
2022-09-30T09:10:28.097Z,13.11
2022-09-30T09:11:28.079Z,13.06
2022-09-30T09:12:28.080Z,13.06
2022-09-30T09:13:28.080Z,13.14
2022-09-30T09:14:28.076Z,13.19
2022-09-30T09:15:28.038Z,13.24
2022-09-30T09:16:28.080Z,13.30
2022-09-30T09:17:28.025Z,13.35
2022-09-30T09:18:28.076Z,13.24
2022-09-30T09:19:28.010Z,13.17
2022-09-30T09:20:28.016Z,13.17
2022-09-30T09:21:28.019Z,13.14
2022-09-30T09:22:27.958Z,13.19
2022-09-30T09:23:27.945Z,13.17
2022-09-30T09:24:27.966Z,13.24
2022-09-30T09:25:27.948Z,13.29
2022-09-30T09:26:27.913Z,13.30
2022-09-30T09:27:28.007Z,13.30
2022-09-30T09:28:27.949Z,13.32
2022-09-30T09:29:27.909Z,13.36
2022-09-30T09:30:27.877Z,13.38
2022-09-30T09:31:27.893Z,13.49
2022-09-30T09:32:27.861Z,13.60
2022-09-30T09:33:27.863Z,13.71
2022-09-30T09:34:27.863Z,13.71
2022-09-30T09:35:27.837Z,13.79
2022-09-30T09:36:27.808Z,13.91
2022-09-30T09:37:27.811Z,13.94
2022-09-30T09:38:27.792Z,14.03
2022-09-30T09:39:27.779Z,14.16
2022-09-30T09:40:27.778Z,14.41
2022-09-30T09:41:27.768Z,14.59
2022-09-30T09:42:27.781Z,14.78
2022-09-30T09:43:29.551Z,14.85
2022-09-30T09:44:27.762Z,15.03
2022-09-30T09:45:27.938Z,15.23
2022-09-30T09:46:27.870Z,15.50
2022-09-30T09:47:27.712Z,15.77
2022-09-30T09:48:27.676Z,15.90
2022-09-30T09:49:27.685Z,15.66
2022-09-30T09:50:27.757Z,15.66
2022-09-30T09:51:27.772Z,15.77
2022-09-30T09:52:27.721Z,16.10
2022-09-30T09:53:27.644Z,16.42
2022-09-30T09:54:27.621Z,16.55
2022-09-30T09:55:27.615Z,16.64
2022-09-30T09:56:32.068Z,16.67
2022-09-30T09:57:27.647Z,16.82
2022-09-30T09:58:27.594Z,16.98
2022-09-30T09:59:27.895Z,17.49
2022-09-30T10:00:27.609Z,17.97
2022-09-30T10:01:27.636Z,18.38
2022-09-30T10:02:27.585Z,18.58
2022-09-30T10:03:27.611Z,18.58
2022-09-30T10:04:27.540Z,18.28
2022-09-30T10:05:27.517Z,18.39
2022-09-30T10:06:27.487Z,18.93
2022-09-30T10:07:27.486Z,19.30
2022-09-30T10:08:27.463Z,19.82
2022-09-30T10:09:27.483Z,20.08
2022-09-30T10:10:27.445Z,20.23
2022-09-30T10:11:27.445Z,20.52
2022-09-30T10:12:27.435Z,20.36
2022-09-30T10:13:27.429Z,19.92
2022-09-30T10:14:27.418Z,19.96
2022-09-30T10:15:27.430Z,20.30
2022-09-30T10:16:27.417Z,20.14
2022-09-30T10:17:27.440Z,20.18
2022-09-30T10:18:27.396Z,20.42
2022-09-30T10:19:27.356Z,19.92
2022-09-30T10:20:27.333Z,20.08
2022-09-30T10:21:27.325Z,20.09
2022-09-30T10:22:27.362Z,19.90
2022-09-30T10:23:27.537Z,19.89
2022-09-30T10:24:27.326Z,20.15
2022-09-30T10:25:27.318Z,20.46
2022-09-30T10:27:27.311Z,20.11
2022-09-30T10:28:27.379Z,20.14
2022-09-30T10:29:27.290Z,20.08
2022-09-30T10:30:27.251Z,20.09
2022-09-30T10:31:27.320Z,19.56
2022-09-30T10:32:27.310Z,19.97
2022-09-30T10:33:27.232Z,20.15
2022-09-30T10:34:27.188Z,20.58
2022-09-30T10:35:27.180Z,21.11
2022-09-30T10:36:27.186Z,21.44
2022-09-30T10:37:27.272Z,21.35
2022-09-30T10:38:27.190Z,21.11
2022-09-30T10:39:27.163Z,21.10
2022-09-30T10:40:27.126Z,20.98
2022-09-30T10:41:27.402Z,21.10
2022-09-30T10:42:27.290Z,20.49
2022-09-30T10:43:27.103Z,20.37
2022-09-30T10:44:27.106Z,20.44
2022-09-30T10:45:27.099Z,20.73
2022-09-30T10:46:27.773Z,21.03
2022-09-30T10:47:27.052Z,21.16
2022-09-30T10:48:27.033Z,20.90
2022-09-30T10:49:27.054Z,21.10
2022-09-30T10:50:27.035Z,21.56
2022-09-30T10:51:27.331Z,21.98
2022-09-30T10:52:26.993Z,21.77
2022-09-30T10:53:26.995Z,21.71
2022-09-30T10:54:27.000Z,21.96
2022-09-30T10:55:26.963Z,22.22
2022-09-30T10:56:26.960Z,22.58
2022-09-30T10:57:26.962Z,21.90
2022-09-30T10:58:26.931Z,21.73
2022-09-30T10:59:26.937Z,21.97
2022-09-30T11:00:26.997Z,21.77
2022-09-30T11:01:27.242Z,22.33
2022-09-30T11:02:26.899Z,22.13
2022-09-30T11:03:26.899Z,22.03
2022-09-30T11:04:26.860Z,21.55
2022-09-30T11:05:26.890Z,21.94
2022-09-30T11:06:27.096Z,22.04
2022-09-30T11:07:26.877Z,21.97
2022-09-30T11:08:26.850Z,20.68
2022-09-30T11:09:26.823Z,21.37
2022-09-30T11:10:26.839Z,21.47
2022-09-30T11:11:26.806Z,22.03
2022-09-30T11:12:26.789Z,21.91
2022-09-30T11:13:26.785Z,22.15
2022-09-30T11:14:26.766Z,22.37
2022-09-30T11:15:26.767Z,22.12
2022-09-30T11:16:27.272Z,21.88
2022-09-30T11:17:26.758Z,21.90
2022-09-30T11:18:26.731Z,21.77
2022-09-30T11:19:26.720Z,21.47
2022-09-30T11:20:26.703Z,21.03
2022-09-30T11:21:26.717Z,20.74
2022-09-30T11:22:26.697Z,20.65
2022-09-30T11:23:26.681Z,21.14
2022-09-30T11:24:26.718Z,20.92
2022-09-30T11:25:26.679Z,20.92
2022-09-30T11:26:26.920Z,20.41
2022-09-30T11:27:26.662Z,19.92
2022-09-30T11:28:26.646Z,19.92
2022-09-30T11:29:26.626Z,19.81
2022-09-30T11:30:26.610Z,19.59
2022-09-30T11:31:26.675Z,19.27
2022-09-30T11:32:26.576Z,18.38
2022-09-30T11:33:26.594Z,17.66
2022-09-30T11:34:26.557Z,17.14
2022-09-30T11:35:26.556Z,17.34
2022-09-30T11:36:26.846Z,17.72
2022-09-30T11:37:26.565Z,17.52
2022-09-30T11:38:26.541Z,17.43
2022-09-30T11:39:26.525Z,17.10
2022-09-30T11:40:26.494Z,16.91
2022-09-30T11:41:26.514Z,16.33
2022-09-30T11:42:26.496Z,16.40
2022-09-30T11:43:26.478Z,16.51
2022-09-30T11:44:26.454Z,16.43
2022-09-30T11:45:26.543Z,16.25
2022-09-30T11:46:26.781Z,16.08
2022-09-30T11:47:26.441Z,15.87
2022-09-30T11:48:30.524Z,15.91
2022-09-30T11:49:26.426Z,15.78
2022-09-30T11:50:26.388Z,15.88
2022-09-30T11:51:26.403Z,16.29
2022-09-30T11:52:26.436Z,16.51
2022-09-30T11:53:26.394Z,16.51
2022-09-30T11:54:26.360Z,16.83
2022-09-30T11:55:26.337Z,17.14
2022-09-30T11:56:26.563Z,17.13
2022-09-30T11:57:26.344Z,17.30
2022-09-30T11:58:40.942Z,17.53
2022-09-30T11:59:26.314Z,17.81
2022-09-30T12:00:26.290Z,18.02
2022-09-30T12:01:26.286Z,18.26
2022-09-30T12:02:26.313Z,18.20
2022-09-30T12:03:26.354Z,18.06
2022-09-30T12:04:26.238Z,18.13
2022-09-30T12:05:26.250Z,18.24
2022-09-30T12:06:26.648Z,18.36
2022-09-30T12:07:26.214Z,18.64
2022-09-30T12:08:26.214Z,18.94
2022-09-30T12:09:26.209Z,19.38
2022-09-30T12:10:26.200Z,20.08
2022-09-30T12:11:26.205Z,20.68
2022-09-30T12:12:26.146Z,21.04
2022-09-30T12:13:26.182Z,21.35
2022-09-30T12:14:26.134Z,21.55
2022-09-30T12:15:26.142Z,21.94
2022-09-30T12:16:26.509Z,22.21
2022-09-30T12:17:26.116Z,22.04
2022-09-30T12:18:26.129Z,21.58
2022-09-30T12:19:26.106Z,21.80
2022-09-30T12:20:26.078Z,21.90
2022-09-30T12:21:26.086Z,21.90
2022-09-30T12:22:26.057Z,22.28
2022-09-30T12:23:26.090Z,22.55
2022-09-30T12:24:26.034Z,21.98
2022-09-30T12:25:26.037Z,22.22
2022-09-30T12:26:26.325Z,22.66
2022-09-30T12:27:25.998Z,22.91
2022-09-30T12:28:26.073Z,23.17
2022-09-30T12:29:26.045Z,23.56
2022-09-30T12:30:25.977Z,23.70
2022-09-30T12:31:26.078Z,23.61
2022-09-30T12:32:25.946Z,23.91
2022-09-30T12:33:26.003Z,23.63
2022-09-30T12:34:25.967Z,23.31
2022-09-30T12:35:25.920Z,23.60
2022-09-30T12:36:25.903Z,23.63
2022-09-30T12:37:26.069Z,23.13
2022-09-30T12:38:25.962Z,23.66
2022-09-30T12:39:25.892Z,23.22
2022-09-30T12:40:25.886Z,23.31
2022-09-30T12:41:25.865Z,23.01
2022-09-30T12:42:25.848Z,23.34
2022-09-30T12:43:25.891Z,23.56
2022-09-30T12:44:25.864Z,22.49
2022-09-30T12:45:25.830Z,22.70
2022-09-30T12:46:25.835Z,22.83
2022-09-30T12:47:25.800Z,23.34
2022-09-30T12:48:25.792Z,23.60
2022-09-30T12:49:25.814Z,23.61
2022-09-30T12:50:25.802Z,24.00
2022-09-30T12:51:25.761Z,23.74
2022-09-30T12:52:25.749Z,23.70
2022-09-30T12:53:25.758Z,23.88
2022-09-30T12:54:25.757Z,23.60
2022-09-30T12:55:25.746Z,21.44
2022-09-30T12:56:25.700Z,19.97
2022-09-30T12:57:25.778Z,20.33
2022-09-30T12:58:30.435Z,19.24
2022-09-30T12:59:25.733Z,18.76
2022-09-30T13:00:25.696Z,19.24
2022-09-30T13:01:25.765Z,20.79
2022-09-30T13:02:25.698Z,21.55
2022-09-30T13:03:25.640Z,22.22
2022-09-30T13:04:25.632Z,22.99
2022-09-30T13:05:25.747Z,22.93
2022-09-30T13:06:25.616Z,22.89
2022-09-30T13:07:25.610Z,23.54
2022-09-30T13:08:25.740Z,23.06
2022-09-30T13:09:25.596Z,23.06
2022-09-30T13:10:25.587Z,22.52